sensor_id;sensor_type;location;lat;lon;timestamp;P1;durP1;ratioP1;P2;durP2;ratioP2
39698;SDS011;25372;50.582;12.250;2023-11-21T00:06:02;1.30;;;0.90;;
39698;SDS011;25372;50.582;12.250;2023-11-21T00:16:25;7.20;;;1.30;;
39698;SDS011;25372;50.582;12.250;2023-11-21T00:26:46;1.55;;;0.80;;
39698;SDS011;25372;50.582;12.250;2023-11-21T00:37:09;1.17;;;1.08;;
39698;SDS011;25372;50.582;12.250;2023-11-21T00:47:31;0.70;;;0.70;;
39698;SDS011;25372;50.582;12.250;2023-11-21T00:57:53;1.17;;;0.88;;
39698;SDS011;25372;50.582;12.250;2023-11-21T01:08:14;1.38;;;0.93;;
39698;SDS011;25372;50.582;12.250;2023-11-21T01:18:37;0.75;;;0.75;;
39698;SDS011;25372;50.582;12.250;2023-11-21T01:28:58;3.33;;;1.60;;
39698;SDS011;25372;50.582;12.250;2023-11-21T01:39:20;3.50;;;1.13;;
39698;SDS011;25372;50.582;12.250;2023-11-21T01:49:43;1.67;;;0.87;;
39698;SDS011;25372;50.582;12.250;2023-11-21T02:00:06;2.72;;;0.90;;
39698;SDS011;25372;50.582;12.250;2023-11-21T02:10:34;0.88;;;0.88;;
39698;SDS011;25372;50.582;12.250;2023-11-21T02:20:58;1.50;;;1.40;;
39698;SDS011;25372;50.582;12.250;2023-11-21T02:31:23;0.45;;;0.45;;
39698;SDS011;25372;50.582;12.250;2023-11-21T02:41:44;0.70;;;0.70;;
39698;SDS011;25372;50.582;12.250;2023-11-21T02:52:06;1.98;;;1.25;;
39698;SDS011;25372;50.582;12.250;2023-11-21T03:02:27;1.00;;;0.70;;
39698;SDS011;25372;50.582;12.250;2023-11-21T03:12:49;3.25;;;1.02;;
39698;SDS011;25372;50.582;12.250;2023-11-21T03:23:10;0.93;;;0.85;;
39698;SDS011;25372;50.582;12.250;2023-11-21T03:33:32;1.00;;;0.90;;
39698;SDS011;25372;50.582;12.250;2023-11-21T03:43:54;3.05;;;1.30;;
39698;SDS011;25372;50.582;12.250;2023-11-21T03:54:16;2.30;;;1.42;;
39698;SDS011;25372;50.582;12.250;2023-11-21T04:04:38;1.52;;;0.98;;
39698;SDS011;25372;50.582;12.250;2023-11-21T04:15:00;0.82;;;0.82;;
39698;SDS011;25372;50.582;12.250;2023-11-21T04:25:21;9.48;;;2.03;;
39698;SDS011;25372;50.582;12.250;2023-11-21T04:35:44;2.20;;;1.50;;
39698;SDS011;25372;50.582;12.250;2023-11-21T04:46:05;2.42;;;1.67;;
39698;SDS011;25372;50.582;12.250;2023-11-21T04:56:28;6.03;;;1.13;;
39698;SDS011;25372;50.582;12.250;2023-11-21T05:06:48;3.33;;;1.88;;
39698;SDS011;25372;50.582;12.250;2023-11-21T05:17:11;3.83;;;1.88;;
39698;SDS011;25372;50.582;12.250;2023-11-21T05:27:31;2.22;;;1.55;;
39698;SDS011;25372;50.582;12.250;2023-11-21T05:37:54;8.20;;;1.27;;
39698;SDS011;25372;50.582;12.250;2023-11-21T05:48:14;2.55;;;1.70;;
39698;SDS011;25372;50.582;12.250;2023-11-21T05:58:37;4.85;;;1.80;;
39698;SDS011;25372;50.582;12.250;2023-11-21T06:08:57;2.63;;;1.58;;
39698;SDS011;25372;50.582;12.250;2023-11-21T06:19:20;4.18;;;2.30;;
39698;SDS011;25372;50.582;12.250;2023-11-21T06:29:40;4.07;;;2.13;;
39698;SDS011;25372;50.582;12.250;2023-11-21T06:40:03;3.38;;;1.77;;
39698;SDS011;25372;50.582;12.250;2023-11-21T06:50:25;7.47;;;3.47;;
39698;SDS011;25372;50.582;12.250;2023-11-21T07:00:48;3.75;;;2.60;;
39698;SDS011;25372;50.582;12.250;2023-11-21T07:11:09;3.72;;;2.08;;
39698;SDS011;25372;50.582;12.250;2023-11-21T07:21:31;6.53;;;2.72;;
39698;SDS011;25372;50.582;12.250;2023-11-21T07:31:52;5.28;;;2.30;;
39698;SDS011;25372;50.582;12.250;2023-11-21T07:42:14;6.55;;;2.28;;
39698;SDS011;25372;50.582;12.250;2023-11-21T07:52:36;3.75;;;2.15;;
39698;SDS011;25372;50.582;12.250;2023-11-21T08:02:58;2.92;;;1.95;;
39698;SDS011;25372;50.582;12.250;2023-11-21T08:13:19;3.42;;;2.60;;
39698;SDS011;25372;50.582;12.250;2023-11-21T08:23:41;5.45;;;2.25;;
39698;SDS011;25372;50.582;12.250;2023-11-21T08:34:02;8.77;;;3.20;;
39698;SDS011;25372;50.582;12.250;2023-11-21T08:44:24;7.15;;;4.00;;
39698;SDS011;25372;50.582;12.250;2023-11-21T08:54:45;7.50;;;3.30;;
39698;SDS011;25372;50.582;12.250;2023-11-21T09:05:08;6.70;;;2.75;;
39698;SDS011;25372;50.582;12.250;2023-11-21T09:15:30;3.85;;;2.40;;
39698;SDS011;25372;50.582;12.250;2023-11-21T09:25:52;4.72;;;1.98;;
39698;SDS011;25372;50.582;12.250;2023-11-21T09:36:16;3.83;;;2.20;;
39698;SDS011;25372;50.582;12.250;2023-11-21T09:46:38;5.28;;;1.63;;
39698;SDS011;25372;50.582;12.250;2023-11-21T10:07:25;4.30;;;1.85;;
39698;SDS011;25372;50.582;12.250;2023-11-21T10:17:46;6.40;;;2.53;;
39698;SDS011;25372;50.582;12.250;2023-11-21T10:28:10;7.95;;;2.60;;
39698;SDS011;25372;50.582;12.250;2023-11-21T10:38:33;5.72;;;2.53;;
39698;SDS011;25372;50.582;12.250;2023-11-21T10:48:58;3.90;;;2.45;;
39698;SDS011;25372;50.582;12.250;2023-11-21T10:59:19;12.55;;;4.38;;
39698;SDS011;25372;50.582;12.250;2023-11-21T11:09:45;5.53;;;2.97;;
39698;SDS011;25372;50.582;12.250;2023-11-21T11:20:07;6.63;;;2.67;;
39698;SDS011;25372;50.582;12.250;2023-11-21T11:30:36;7.78;;;3.45;;
39698;SDS011;25372;50.582;12.250;2023-11-21T11:41:05;8.23;;;3.97;;
39698;SDS011;25372;50.582;12.250;2023-11-21T11:51:29;11.20;;;4.75;;
39698;SDS011;25372;50.582;12.250;2023-11-21T12:01:50;13.60;;;4.90;;
39698;SDS011;25372;50.582;12.250;2023-11-21T12:12:13;8.80;;;4.13;;
39698;SDS011;25372;50.582;12.250;2023-11-21T12:22:36;8.48;;;4.40;;
39698;SDS011;25372;50.582;12.250;2023-11-21T12:32:59;6.55;;;4.30;;
39698;SDS011;25372;50.582;12.250;2023-11-21T12:43:20;7.75;;;4.45;;
39698;SDS011;25372;50.582;12.250;2023-11-21T12:53:43;10.38;;;3.58;;
39698;SDS011;25372;50.582;12.250;2023-11-21T13:04:04;11.65;;;4.35;;
39698;SDS011;25372;50.582;12.250;2023-11-21T13:14:31;11.73;;;4.18;;
39698;SDS011;25372;50.582;12.250;2023-11-21T13:24:52;4.75;;;2.53;;
39698;SDS011;25372;50.582;12.250;2023-11-21T13:35:15;9.18;;;4.35;;
39698;SDS011;25372;50.582;12.250;2023-11-21T13:45:40;9.82;;;5.00;;
39698;SDS011;25372;50.582;12.250;2023-11-21T13:56:02;9.05;;;3.88;;
39698;SDS011;25372;50.582;12.250;2023-11-21T14:06:24;6.63;;;3.72;;
39698;SDS011;25372;50.582;12.250;2023-11-21T14:16:54;7.32;;;3.58;;
39698;SDS011;25372;50.582;12.250;2023-11-21T14:27:16;9.07;;;4.97;;
39698;SDS011;25372;50.582;12.250;2023-11-21T14:37:38;5.18;;;2.42;;
39698;SDS011;25372;50.582;12.250;2023-11-21T14:47:59;8.50;;;3.08;;
39698;SDS011;25372;50.582;12.250;2023-11-21T14:58:27;10.02;;;3.42;;
39698;SDS011;25372;50.582;12.250;2023-11-21T15:08:48;7.88;;;4.07;;
39698;SDS011;25372;50.582;12.250;2023-11-21T15:19:14;6.97;;;2.67;;
39698;SDS011;25372;50.582;12.250;2023-11-21T15:29:38;5.57;;;3.60;;
39698;SDS011;25372;50.582;12.250;2023-11-21T15:40:00;12.55;;;4.00;;
39698;SDS011;25372;50.582;12.250;2023-11-21T15:50:25;6.30;;;3.38;;
39698;SDS011;25372;50.582;12.250;2023-11-21T16:00:47;6.53;;;3.47;;
39698;SDS011;25372;50.582;12.250;2023-11-21T16:11:08;5.03;;;2.67;;
39698;SDS011;25372;50.582;12.250;2023-11-21T16:21:30;4.63;;;2.28;;
39698;SDS011;25372;50.582;12.250;2023-11-21T16:31:51;2.20;;;2.00;;
39698;SDS011;25372;50.582;12.250;2023-11-21T16:42:15;7.72;;;2.03;;
39698;SDS011;25372;50.582;12.250;2023-11-21T16:52:36;2.22;;;2.00;;
39698;SDS011;25372;50.582;12.250;2023-11-21T17:02:59;2.22;;;1.88;;
39698;SDS011;25372;50.582;12.250;2023-11-21T17:13:20;1.10;;;0.85;;
39698;SDS011;25372;50.582;12.250;2023-11-21T17:23:42;0.65;;;0.65;;
39698;SDS011;25372;50.582;12.250;2023-11-21T17:34:03;1.23;;;1.13;;
39698;SDS011;25372;50.582;12.250;2023-11-21T17:44:25;1.40;;;1.20;;
39698;SDS011;25372;50.582;12.250;2023-11-21T17:54:46;1.30;;;1.20;;
39698;SDS011;25372;50.582;12.250;2023-11-21T18:05:09;1.23;;;1.10;;
39698;SDS011;25372;50.582;12.250;2023-11-21T18:25:53;1.75;;;1.40;;
39698;SDS011;25372;50.582;12.250;2023-11-21T18:36:15;5.07;;;1.50;;
39698;SDS011;25372;50.582;12.250;2023-11-21T18:46:37;2.22;;;1.23;;
39698;SDS011;25372;50.582;12.250;2023-11-21T18:56:59;1.80;;;1.53;;
39698;SDS011;25372;50.582;12.250;2023-11-21T19:07:22;2.55;;;1.20;;
39698;SDS011;25372;50.582;12.250;2023-11-21T19:17:43;15.65;;;1.98;;
39698;SDS011;25372;50.582;12.250;2023-11-21T19:28:05;2.42;;;1.30;;
39698;SDS011;25372;50.582;12.250;2023-11-21T19:38:26;0.95;;;0.95;;
39698;SDS011;25372;50.582;12.250;2023-11-21T19:48:49;1.02;;;1.02;;
39698;SDS011;25372;50.582;12.250;2023-11-21T19:59:12;2.72;;;1.50;;
39698;SDS011;25372;50.582;12.250;2023-11-21T20:09:36;1.00;;;0.95;;
39698;SDS011;25372;50.582;12.250;2023-11-21T20:19:57;2.35;;;1.52;;
39698;SDS011;25372;50.582;12.250;2023-11-21T20:30:20;5.32;;;1.90;;
39698;SDS011;25372;50.582;12.250;2023-11-21T20:51:04;2.15;;;2.03;;
39698;SDS011;25372;50.582;12.250;2023-11-21T21:01:25;4.93;;;2.45;;
39698;SDS011;25372;50.582;12.250;2023-11-21T21:11:48;2.53;;;2.15;;
39698;SDS011;25372;50.582;12.250;2023-11-21T21:22:08;5.15;;;1.08;;
39698;SDS011;25372;50.582;12.250;2023-11-21T21:32:32;3.40;;;1.80;;
39698;SDS011;25372;50.582;12.250;2023-11-21T21:42:54;5.10;;;2.15;;
39698;SDS011;25372;50.582;12.250;2023-11-21T21:53:17;2.60;;;1.83;;
39698;SDS011;25372;50.582;12.250;2023-11-21T22:03:38;4.80;;;2.75;;
39698;SDS011;25372;50.582;12.250;2023-11-21T22:14:01;7.78;;;4.10;;
39698;SDS011;25372;50.582;12.250;2023-11-21T22:24:22;6.07;;;3.75;;
39698;SDS011;25372;50.582;12.250;2023-11-21T22:34:44;3.97;;;3.42;;
39698;SDS011;25372;50.582;12.250;2023-11-21T22:45:05;4.05;;;3.00;;
39698;SDS011;25372;50.582;12.250;2023-11-21T22:55:28;5.07;;;3.33;;
39698;SDS011;25372;50.582;12.250;2023-11-21T23:05:49;9.25;;;3.88;;
39698;SDS011;25372;50.582;12.250;2023-11-21T23:16:13;9.52;;;4.30;;
39698;SDS011;25372;50.582;12.250;2023-11-21T23:26:36;10.68;;;5.70;;
39698;SDS011;25372;50.582;12.250;2023-11-21T23:36:58;6.28;;;3.70;;
39698;SDS011;25372;50.582;12.250;2023-11-21T23:47:19;8.23;;;6.95;;
39698;SDS011;25372;50.582;12.250;2023-11-21T23:57:41;9.20;;;5.82;;
